Time;durP1;ratioP1;P1;durP2;ratioP2;P2;SDS_P1;SDS_P2;PMS_P1;PMS_P2;Temp;Humidity;BMP_temperature;BMP_pressure;BME280_temperature;BME280_humidity;BME280_pressure;Samples;Min_cycle;Max_cycle;Signal;HPM_P1;HPM_P2
2022/01/24 00:00:51;;;;;;;13.60;8.32;;;6.80;99.90;;;;;;5033307;28;20619;-68
2022/01/24 00:03:17;;;;;;;13.27;8.35;;;6.80;99.90;;;;;;5042486;28;20044;-68
2022/01/24 00:05:42;;;;;;;11.27;7.82;;;6.80;99.90;;;;;;5035121;28;20068;-68
2022/01/24 00:08:08;;;;;;;14.27;8.63;;;6.80;99.90;;;;;;5043852;28;20112;-68
2022/01/24 00:10:36;;;;;;;13.40;8.68;;;6.80;99.90;;;;;;5039951;28;20044;-68
2022/01/24 00:18:08;;;;;;;14.52;9.50;;;6.80;99.90;;;;;;5033629;28;20045;-68
2022/01/24 00:28:46;;;;;;;15.77;9.68;;;6.80;99.90;;;;;;5044542;28;20046;-68
2022/01/24 00:31:12;;;;;;;14.98;10.13;;;6.80;99.90;;;;;;5045827;28;20041;-68
2022/01/24 00:33:37;;;;;;;15.98;10.48;;;6.80;99.90;;;;;;5032469;28;20099;-69
2022/01/24 00:36:03;;;;;;;16.65;10.82;;;6.80;99.90;;;;;;5042440;28;20562;-68
2022/01/24 00:38:29;;;;;;;17.80;10.55;;;6.80;99.90;;;;;;5042793;28;20358;-68
2022/01/24 00:40:54;;;;;;;14.48;10.07;;;6.70;99.90;;;;;;5044980;28;20118;-68
2022/01/24 00:43:34;;;;;;;15.73;9.77;;;6.70;99.90;;;;;;5042321;28;20115;-67
2022/01/24 00:46:07;;;;;;;15.23;10.02;;;6.70;99.90;;;;;;5047615;28;20141;-68
2022/01/24 00:48:58;;;;;;;17.63;10.48;;;6.70;99.90;;;;;;5037611;28;20187;-68
2022/01/24 00:56:51;;;;;;;15.07;9.80;;;6.70;99.90;;;;;;5035152;28;20049;-68
2022/01/24 00:59:16;;;;;;;16.77;10.68;;;6.70;99.90;;;;;;5039562;28;20519;-68
2022/01/24 01:01:42;;;;;;;18.05;11.18;;;6.70;99.90;;;;;;5038271;28;20049;-68
2022/01/24 01:04:07;;;;;;;16.20;10.75;;;6.70;99.90;;;;;;5037480;28;20041;-68
2022/01/24 01:06:33;;;;;;;17.42;11.13;;;6.70;99.90;;;;;;5043967;28;20132;-68
2022/01/24 01:20:04;;;;;;;17.90;11.15;;;6.70;99.90;;;;;;5045571;28;20045;-69
2022/01/24 01:22:29;;;;;;;18.67;11.82;;;6.70;99.90;;;;;;5045894;28;20517;-69
2022/01/24 01:24:56;;;;;;;16.90;11.05;;;6.70;99.90;;;;;;5037626;28;20144;-68
2022/01/24 01:27:27;;;;;;;17.27;11.23;;;6.70;99.90;;;;;;5041315;28;20095;-68
2022/01/24 01:29:59;;;;;;;17.48;11.05;;;6.70;99.90;;;;;;5036279;28;20053;-68
2022/01/24 01:32:42;;;;;;;15.40;10.43;;;6.70;99.90;;;;;;5043442;28;20492;-68
2022/01/24 01:56:07;;;;;;;15.73;10.18;;;6.60;99.90;;;;;;5038595;28;20045;-69
2022/01/24 01:58:32;;;;;;;14.95;10.15;;;6.60;99.90;;;;;;5041165;28;20059;-68
2022/01/24 02:01:02;;;;;;;13.57;9.88;;;6.60;99.90;;;;;;5040815;28;20469;-69
2022/01/24 02:03:29;;;;;;;13.90;8.93;;;6.60;99.90;;;;;;5041813;28;20067;-68
2022/01/24 02:05:55;;;;;;;14.52;9.55;;;6.60;99.90;;;;;;5040644;28;20095;-68
2022/01/24 02:08:26;;;;;;;14.77;9.20;;;6.60;99.90;;;;;;5045533;28;20152;-69
2022/01/24 02:10:52;;;;;;;15.13;10.30;;;6.60;99.90;;;;;;5048277;28;20045;-68
2022/01/24 02:13:18;;;;;;;13.50;8.88;;;6.60;99.90;;;;;;5040977;28;20055;-68
2022/01/24 02:25:52;;;;;;;12.35;8.60;;;6.60;99.90;;;;;;5031558;28;20123;-68
2022/01/24 02:28:20;;;;;;;12.68;8.43;;;6.60;99.90;;;;;;5040752;28;20451;-67
2022/01/24 02:33:16;;;;;;;12.93;8.55;;;6.60;99.90;;;;;;5044770;28;20081;-68
2022/01/24 02:35:42;;;;;;;12.90;8.40;;;6.50;99.90;;;;;;5042852;28;20460;-69
2022/01/24 02:48:21;;;;;;;12.18;8.13;;;6.40;99.90;;;;;;5041311;28;20084;-68
2022/01/24 02:49:06;;;;;;;10.75;7.63;;;6.50;99.90;;;;;;5040625;28;20064;-68
2022/01/24 02:51:53;;;;;;;11.20;7.43;;;6.50;99.90;;;;;;5042312;28;20119;-68
2022/01/24 02:54:21;;;;;;;11.18;7.30;;;6.50;99.90;;;;;;5040299;28;20508;-68
2022/01/24 02:56:47;;;;;;;10.52;7.53;;;6.40;99.90;;;;;;5036998;28;20033;-68
2022/01/24 02:59:12;;;;;;;11.73;7.15;;;6.40;99.90;;;;;;5041195;28;20107;-67
2022/01/24 03:01:41;;;;;;;11.68;8.05;;;6.40;99.90;;;;;;5043434;28;20492;-68
2022/01/24 03:04:07;;;;;;;12.13;7.70;;;6.40;99.90;;;;;;5037734;28;20049;-70
2022/01/24 03:06:32;;;;;;;10.90;7.22;;;6.40;99.90;;;;;;5042767;28;20488;-67
2022/01/24 03:08:58;;;;;;;12.13;8.07;;;6.40;99.90;;;;;;5046710;28;20037;-67
2022/01/24 03:11:27;;;;;;;13.30;9.00;;;6.40;99.90;;;;;;5040692;28;20063;-67
2022/01/24 03:13:53;;;;;;;13.65;8.82;;;6.40;99.90;;;;;;5046927;28;20041;-67
2022/01/24 03:16:19;;;;;;;14.25;9.25;;;6.40;99.90;;;;;;5049698;28;20052;-67
2022/01/24 03:18:44;;;;;;;12.27;8.73;;;6.40;99.90;;;;;;5042172;28;20041;-68
2022/01/24 03:21:10;;;;;;;13.82;9.15;;;6.40;99.90;;;;;;5037022;28;20037;-68
2022/01/24 03:23:35;;;;;;;13.88;8.55;;;6.40;99.90;;;;;;5038158;28;20065;-67
2022/01/24 03:26:01;;;;;;;13.25;8.75;;;6.40;99.90;;;;;;5037956;28;20163;-68
2022/01/24 03:28:27;;;;;;;13.43;9.00;;;6.40;99.90;;;;;;5034049;28;20141;-68
2022/01/24 03:30:53;;;;;;;14.13;9.27;;;6.40;99.90;;;;;;5039766;28;20041;-68
2022/01/24 03:33:18;;;;;;;14.13;9.68;;;6.40;99.90;;;;;;5036383;28;20072;-67
2022/01/24 03:35:44;;;;;;;13.73;9.50;;;6.40;99.90;;;;;;5047883;28;20116;-68
2022/01/24 03:38:11;;;;;;;14.43;9.25;;;6.40;99.90;;;;;;5038719;28;20160;-68
2022/01/24 03:40:36;;;;;;;14.57;9.57;;;6.40;99.90;;;;;;5036930;28;20396;-67
2022/01/24 03:43:02;;;;;;;13.27;9.00;;;6.40;99.90;;;;;;5036623;28;20045;-69
2022/01/24 03:45:46;;;;;;;13.90;9.30;;;6.40;99.90;;;;;;5036159;28;20045;-68
2022/01/24 03:50:49;;;;;;;14.63;9.40;;;6.50;99.90;;;;;;5034655;28;20068;-67
2022/01/24 03:53:15;;;;;;;15.88;9.65;;;6.40;99.90;;;;;;5037270;28;20037;-68
2022/01/24 03:55:41;;;;;;;16.35;10.50;;;6.50;99.90;;;;;;5035302;28;20033;-67
2022/01/24 03:58:06;;;;;;;13.45;9.10;;;6.50;99.90;;;;;;5037396;28;20399;-68
2022/01/24 04:00:32;;;;;;;13.65;9.15;;;6.50;99.90;;;;;;5035443;28;20476;-68
2022/01/24 04:02:57;;;;;;;15.30;8.55;;;6.40;99.90;;;;;;5034844;28;20036;-68
2022/01/24 04:05:23;;;;;;;13.25;8.90;;;6.40;99.90;;;;;;5037317;28;20059;-66
2022/01/24 04:07:49;;;;;;;13.38;8.75;;;6.40;99.90;;;;;;5035238;28;20037;-67
2022/01/24 04:10:18;;;;;;;15.90;9.48;;;6.40;99.90;;;;;;5038181;28;20542;-67
2022/01/24 04:12:44;;;;;;;14.38;9.45;;;6.40;99.90;;;;;;5037964;28;20041;-67
2022/01/24 04:15:26;;;;;;;14.55;9.48;;;6.40;99.90;;;;;;5034303;28;20043;-67
2022/01/24 04:18:10;;;;;;;13.57;8.57;;;6.40;99.90;;;;;;5037147;28;20052;-68
2022/01/24 04:23:20;;;;;;;15.00;9.25;;;6.40;99.90;;;;;;5038030;28;20084;-68
2022/01/24 04:25:46;;;;;;;14.52;9.77;;;6.40;99.90;;;;;;5035725;28;20056;-67
2022/01/24 04:28:11;;;;;;;13.75;9.10;;;6.40;99.90;;;;;;5035403;28;20082;-66
2022/01/24 04:30:38;;;;;;;15.07;9.75;;;6.40;99.90;;;;;;5035081;28;20037;-68
2022/01/24 04:33:03;;;;;;;18.58;11.40;;;6.30;99.90;;;;;;5037515;28;20041;-67
2022/01/24 04:35:29;;;;;;;17.38;10.30;;;6.30;99.90;;;;;;5039126;28;20110;-67
2022/01/24 04:37:54;;;;;;;14.50;10.00;;;6.40;99.90;;;;;;5040689;28;20756;-67
2022/01/24 04:40:20;;;;;;;14.30;9.45;;;6.30;99.90;;;;;;5036831;28;20069;-66
2022/01/24 04:42:52;;;;;;;14.10;9.45;;;6.30;99.90;;;;;;5033373;28;20041;-68
2022/01/24 04:50:28;;;;;;;15.40;10.20;;;6.30;99.90;;;;;;5033183;28;20044;-67
2022/01/24 04:50:45;;;;;;;17.15;11.07;;;6.30;99.90;;;;;;5038833;28;20049;-66
2022/01/24 04:53:29;;;;;;;14.90;10.45;;;6.30;99.90;;;;;;5045687;28;20196;-67
2022/01/24 04:55:55;;;;;;;17.87;11.23;;;6.30;99.90;;;;;;5042802;28;20099;-67
2022/01/24 04:58:21;;;;;;;17.48;11.00;;;6.30;99.90;;;;;;5046673;28;20072;-67
2022/01/24 05:00:46;;;;;;;16.48;11.30;;;6.30;99.90;;;;;;5044606;28;20050;-67
2022/01/24 05:03:12;;;;;;;18.42;11.82;;;6.30;99.90;;;;;;5047884;28;20059;-68
2022/01/24 05:05:37;;;;;;;19.48;11.77;;;6.30;99.90;;;;;;5042143;28;20556;-68
2022/01/24 05:08:05;;;;;;;19.58;12.20;;;6.30;99.90;;;;;;5038146;28;20045;-67
2022/01/24 05:10:40;;;;;;;18.48;12.05;;;6.30;99.90;;;;;;5045184;28;20061;-66
2022/01/24 05:23:25;;;;;;;19.10;11.43;;;6.30;99.90;;;;;;5046261;28;20527;-67
2022/01/24 05:24:05;;;;;;;18.25;11.73;;;6.30;99.90;;;;;;5044599;28;20526;-67
2022/01/24 05:26:30;;;;;;;19.60;11.93;;;6.30;99.90;;;;;;5038505;28;20056;-67
2022/01/24 05:28:56;;;;;;;18.52;12.13;;;6.30;99.90;;;;;;5034498;28;20042;-67
2022/01/24 05:31:21;;;;;;;19.13;12.30;;;6.30;99.90;;;;;;5039817;28;20048;-67
2022/01/24 05:33:47;;;;;;;19.52;12.18;;;6.30;99.90;;;;;;5047438;28;20190;-69
2022/01/24 05:36:13;;;;;;;20.98;13.27;;;6.20;99.90;;;;;;5040638;28;20420;-68
2022/01/24 05:38:39;;;;;;;20.38;12.80;;;6.30;99.90;;;;;;5039171;28;20103;-68
2022/01/24 05:41:05;;;;;;;20.73;13.05;;;6.30;99.90;;;;;;5040357;28;20091;-67
2022/01/24 05:43:31;;;;;;;22.05;12.98;;;6.30;99.90;;;;;;5033401;28;20107;-68
2022/01/24 05:45:57;;;;;;;19.58;12.32;;;6.30;99.90;;;;;;5030966;28;20075;-68
2022/01/24 05:48:22;;;;;;;19.85;12.65;;;6.30;99.90;;;;;;5034004;28;20417;-69
2022/01/24 05:50:48;;;;;;;20.27;12.80;;;6.20;99.90;;;;;;5034183;28;20056;-67
2022/01/24 05:53:13;;;;;;;21.85;13.43;;;6.30;99.90;;;;;;5034627;28;20964;-67
2022/01/24 05:55:39;;;;;;;21.48;12.70;;;6.20;99.90;;;;;;5041648;28;20044;-69
2022/01/24 05:58:05;;;;;;;19.48;12.05;;;6.30;99.90;;;;;;5035072;28;20433;-68
2022/01/24 06:00:30;;;;;;;19.95;12.48;;;6.20;99.90;;;;;;5044889;28;20049;-67
2022/01/24 06:02:56;;;;;;;22.33;14.05;;;6.20;99.90;;;;;;5045151;28;20162;-68
2022/01/24 06:05:21;;;;;;;24.67;15.05;;;6.20;99.90;;;;;;5042947;28;20064;-67
2022/01/24 06:07:49;;;;;;;28.85;16.45;;;6.30;99.90;;;;;;5046016;28;20033;-69
2022/01/24 06:10:15;;;;;;;30.38;17.38;;;6.30;99.90;;;;;;5048212;28;20084;-69
2022/01/24 06:12:41;;;;;;;29.10;17.35;;;6.30;99.90;;;;;;5042564;28;20182;-69
2022/01/24 06:15:06;;;;;;;32.53;18.83;;;6.30;99.90;;;;;;5042528;28;20035;-68
2022/01/24 06:17:32;;;;;;;33.85;19.45;;;6.30;99.90;;;;;;5027445;28;20059;-68
2022/01/24 06:19:58;;;;;;;34.65;20.58;;;6.30;99.90;;;;;;5043943;28;20045;-68
2022/01/24 06:22:23;;;;;;;32.85;20.23;;;6.30;99.90;;;;;;5046350;28;20049;-68
2022/01/24 06:24:49;;;;;;;35.47;21.20;;;6.30;99.90;;;;;;5045625;28;20625;-67
2022/01/24 06:27:14;;;;;;;33.85;20.75;;;6.30;99.90;;;;;;5048124;28;20049;-67
2022/01/24 06:29:40;;;;;;;35.03;21.02;;;6.30;99.90;;;;;;5040701;28;20039;-67
2022/01/24 06:32:06;;;;;;;39.13;21.90;;;6.30;99.90;;;;;;5040302;28;20091;-68
2022/01/24 06:34:31;;;;;;;36.15;20.98;;;6.30;99.90;;;;;;5033853;28;20436;-67
2022/01/24 06:36:57;;;;;;;37.17;20.88;;;6.30;99.90;;;;;;5046198;28;20049;-68
2022/01/24 06:39:23;;;;;;;39.00;22.55;;;6.30;99.90;;;;;;5041994;28;20060;-70
2022/01/24 06:42:05;;;;;;;35.30;21.98;;;6.30;99.90;;;;;;5049368;28;20124;-68
2022/01/24 06:44:30;;;;;;;36.78;21.60;;;6.40;99.90;;;;;;5043924;28;20045;-67
2022/01/24 06:46:56;;;;;;;36.13;22.65;;;6.30;99.90;;;;;;5037633;28;20051;-68
2022/01/24 06:49:21;;;;;;;37.25;23.23;;;6.30;99.90;;;;;;5044372;28;20086;-68
2022/01/24 06:51:47;;;;;;;38.45;23.33;;;6.30;99.90;;;;;;5043346;28;20131;-69
2022/01/24 06:54:12;;;;;;;38.20;23.17;;;6.30;99.90;;;;;;5046869;28;20045;-69
2022/01/24 06:56:38;;;;;;;39.10;23.52;;;6.30;99.90;;;;;;5048524;28;20056;-69
2022/01/24 06:59:03;;;;;;;36.55;23.55;;;6.30;99.90;;;;;;5047961;28;20110;-69
2022/01/24 07:01:29;;;;;;;35.38;23.05;;;6.20;99.90;;;;;;5032056;28;20086;-69
2022/01/24 07:03:55;;;;;;;37.00;24.50;;;6.20;99.90;;;;;;5044804;28;20179;-69
2022/01/24 07:06:20;;;;;;;37.58;24.77;;;6.20;99.90;;;;;;5046795;28;20041;-68
2022/01/24 07:08:46;;;;;;;39.38;25.88;;;6.20;99.90;;;;;;5056561;28;20037;-67
2022/01/24 07:11:11;;;;;;;39.75;26.25;;;6.20;99.90;;;;;;5051634;28;20067;-67
2022/01/24 07:13:37;;;;;;;39.75;27.02;;;6.20;99.90;;;;;;5034519;28;20397;-67
2022/01/24 07:16:05;;;;;;;39.67;25.98;;;6.20;99.90;;;;;;5042863;28;20044;-68
2022/01/24 07:20:58;;;;;;;41.65;27.58;;;6.20;99.90;;;;;;5039501;28;20041;-68
2022/01/24 07:23:24;;;;;;;42.28;27.52;;;6.30;99.90;;;;;;5037961;28;20385;-67
2022/01/24 07:25:49;;;;;;;44.00;29.05;;;6.30;99.90;;;;;;5043316;28;20048;-69
2022/01/24 07:28:16;;;;;;;46.70;29.13;;;6.20;99.90;;;;;;5050528;28;20049;-67
2022/01/24 07:30:43;;;;;;;41.13;27.90;;;6.20;99.90;;;;;;5038208;28;20124;-68
2022/01/24 07:33:08;;;;;;;42.97;27.30;;;6.20;99.90;;;;;;5043840;28;20052;-68
2022/01/24 07:35:34;;;;;;;44.03;28.05;;;6.20;99.90;;;;;;5041122;28;20045;-67
2022/01/24 07:38:00;;;;;;;40.60;26.95;;;6.20;99.90;;;;;;5041538;28;20037;-68
2022/01/24 07:40:26;;;;;;;42.85;27.25;;;6.20;99.90;;;;;;5029182;28;20543;-70
2022/01/24 07:45:19;;;;;;;47.13;29.63;;;6.20;99.90;;;;;;5050771;28;20068;-69
2022/01/24 07:47:47;;;;;;;46.95;29.88;;;6.20;99.90;;;;;;5044967;28;20045;-68
2022/01/24 07:50:14;;;;;;;44.92;28.65;;;6.20;99.90;;;;;;5041633;28;20511;-68
2022/01/24 07:52:39;;;;;;;45.97;27.90;;;6.30;99.90;;;;;;5038653;28;20124;-69
2022/01/24 07:55:05;;;;;;;44.33;29.52;;;6.30;99.90;;;;;;5047764;28;20116;-71
2022/01/24 07:57:31;;;;;;;45.67;29.50;;;6.30;99.90;;;;;;5037780;28;20095;-67
2022/01/24 07:59:57;;;;;;;46.97;30.35;;;6.20;99.90;;;;;;5044643;28;20036;-68
2022/01/24 08:02:22;;;;;;;49.55;30.63;;;6.30;99.90;;;;;;5048588;28;20045;-71
2022/01/24 08:04:48;;;;;;;45.97;29.08;;;6.30;99.90;;;;;;5050122;28;20488;-68
2022/01/24 08:07:13;;;;;;;48.72;30.70;;;6.20;99.90;;;;;;5047016;28;20393;-70
2022/01/24 08:09:39;;;;;;;49.03;31.23;;;6.20;99.90;;;;;;5031840;28;20067;-68
2022/01/24 08:12:05;;;;;;;48.05;31.25;;;6.30;99.90;;;;;;5047873;28;20503;-67
2022/01/24 08:14:31;;;;;;;49.90;31.70;;;6.30;99.90;;;;;;5057122;28;20087;-68
2022/01/24 08:16:57;;;;;;;49.67;31.15;;;6.30;99.90;;;;;;5050143;28;20080;-69
2022/01/24 08:19:22;;;;;;;49.47;32.08;;;6.30;99.90;;;;;;5047334;28;20132;-70
2022/01/24 08:21:48;;;;;;;47.90;31.58;;;6.30;99.90;;;;;;5047959;28;20061;-68
2022/01/24 08:24:14;;;;;;;49.88;32.15;;;6.30;99.90;;;;;;5054004;28;20095;-68
2022/01/24 08:26:39;;;;;;;47.50;29.77;;;6.30;99.90;;;;;;5038349;28;20048;-67
2022/01/24 08:29:06;;;;;;;47.42;30.38;;;6.40;99.90;;;;;;5048393;28;20144;-68
2022/01/24 08:31:32;;;;;;;51.40;31.60;;;6.40;99.90;;;;;;5028571;28;20037;-67
2022/01/24 08:33:58;;;;;;;49.58;31.83;;;6.40;99.90;;;;;;5054640;28;20076;-68
2022/01/24 08:36:23;;;;;;;53.85;33.05;;;6.40;99.90;;;;;;5041876;28;20614;-69
2022/01/24 08:38:51;;;;;;;47.67;31.05;;;6.40;99.90;;;;;;5030485;28;20054;-69
2022/01/24 08:41:27;;;;;;;51.03;32.15;;;6.40;99.90;;;;;;5048685;28;20056;-68
2022/01/24 08:44:00;;;;;;;48.38;30.27;;;6.40;99.90;;;;;;5046095;28;20091;-68
2022/01/24 08:46:26;;;;;;;47.22;30.95;;;6.40;99.90;;;;;;5049166;28;20051;-68
2022/01/24 08:48:52;;;;;;;49.50;31.33;;;6.40;99.90;;;;;;5046552;28;20468;-68
2022/01/24 08:51:18;;;;;;;51.08;30.25;;;6.40;99.90;;;;;;5047558;28;20131;-68
2022/01/24 08:53:43;;;;;;;49.83;30.80;;;6.40;99.90;;;;;;5045284;28;20162;-67
2022/01/24 08:56:13;;;;;;;49.38;30.23;;;6.40;99.90;;;;;;5041843;28;20129;-68
2022/01/24 08:58:39;;;;;;;49.05;31.50;;;6.40;99.90;;;;;;5040250;28;20098;-67
2022/01/24 09:01:05;;;;;;;48.72;30.30;;;6.50;99.90;;;;;;5045877;28;20052;-67
2022/01/24 09:03:36;;;;;;;46.42;28.45;;;6.50;99.90;;;;;;5044535;28;20491;-70
2022/01/24 09:06:02;;;;;;;47.80;29.67;;;6.40;99.90;;;;;;5031142;28;20037;-67
2022/01/24 09:08:30;;;;;;;49.33;30.15;;;6.40;99.90;;;;;;5046915;28;20037;-67
2022/01/24 09:10:56;;;;;;;45.38;28.80;;;6.50;99.90;;;;;;5055723;28;20632;-67
2022/01/24 09:13:22;;;;;;;45.05;28.55;;;6.50;99.90;;;;;;5035163;28;20045;-70
2022/01/24 09:15:48;;;;;;;44.60;29.00;;;6.40;99.90;;;;;;5041115;28;20337;-67
2022/01/24 09:18:15;;;;;;;50.58;29.20;;;6.40;99.90;;;;;;5052864;28;20053;-67
2022/01/24 09:20:41;;;;;;;44.42;28.70;;;6.40;99.90;;;;;;5047875;28;20497;-67
2022/01/24 09:23:08;;;;;;;48.00;29.25;;;6.40;99.90;;;;;;5047311;28;20098;-68
2022/01/24 09:25:34;;;;;;;50.50;30.10;;;6.40;99.90;;;;;;5027934;28;20048;-68
2022/01/24 09:27:59;;;;;;;48.05;31.48;;;6.30;99.90;;;;;;5048151;28;20036;-67
2022/01/24 09:30:25;;;;;;;50.42;31.63;;;6.30;99.90;;;;;;5061441;28;20064;-67
2022/01/24 09:32:52;;;;;;;48.03;30.45;;;6.40;99.90;;;;;;5045240;28;20475;-68
2022/01/24 09:35:18;;;;;;;50.83;31.58;;;6.40;99.90;;;;;;5045182;28;20514;-68
2022/01/24 09:37:46;;;;;;;50.33;30.45;;;6.40;99.90;;;;;;5041121;28;20045;-71
2022/01/24 09:40:13;;;;;;;48.03;31.33;;;6.40;99.90;;;;;;5040128;28;20073;-68
2022/01/24 09:42:40;;;;;;;49.08;30.60;;;6.40;99.90;;;;;;5059052;28;20060;-68
2022/01/24 09:45:07;;;;;;;54.47;32.17;;;6.50;99.90;;;;;;5064706;28;20482;-67
2022/01/24 09:47:33;;;;;;;49.75;30.98;;;6.50;99.90;;;;;;5049535;28;20488;-68
2022/01/24 09:49:59;;;;;;;53.78;32.97;;;6.50;99.90;;;;;;5046004;28;20092;-67
2022/01/24 09:52:24;;;;;;;49.67;31.10;;;6.50;99.90;;;;;;5045476;28;20080;-68
2022/01/24 09:54:50;;;;;;;52.47;33.22;;;6.60;99.90;;;;;;5047283;28;20045;-68
2022/01/24 09:57:15;;;;;;;52.22;32.53;;;6.60;99.90;;;;;;5044277;28;20055;-68
2022/01/24 09:59:41;;;;;;;49.83;30.90;;;6.60;99.90;;;;;;5051407;28;20051;-67
2022/01/24 10:02:07;;;;;;;53.05;31.50;;;6.60;99.90;;;;;;5047550;28;20066;-67
2022/01/24 10:04:33;;;;;;;47.38;30.05;;;6.60;99.90;;;;;;5044680;28;20044;-68
2022/01/24 10:07:02;;;;;;;47.13;31.13;;;6.60;99.90;;;;;;5041751;28;20059;-67
2022/01/24 10:09:32;;;;;;;45.47;29.73;;;6.60;99.90;;;;;;5048279;28;20482;-68
2022/01/24 10:17:34;;;;;;;38.15;25.58;;;6.70;99.90;;;;;;5045444;28;20071;-68
2022/01/24 10:20:15;;;;;;;37.28;25.05;;;6.70;99.90;;;;;;5035269;28;20053;-67
2022/01/24 10:22:41;;;;;;;39.13;25.48;;;6.70;99.90;;;;;;5043389;28;20036;-68
2022/01/24 10:25:09;;;;;;;32.67;23.13;;;6.70;99.90;;;;;;5054693;28;20047;-67
2022/01/24 10:27:35;;;;;;;31.70;22.58;;;6.70;99.90;;;;;;5046157;28;20349;-68
2022/01/24 10:30:07;;;;;;;29.95;21.63;;;6.80;99.90;;;;;;5048477;28;20053;-68
2022/01/24 10:32:39;;;;;;;27.85;20.63;;;6.80;99.90;;;;;;5039489;28;20649;-69
2022/01/24 10:35:25;;;;;;;27.02;20.98;;;6.80;99.90;;;;;;5046079;28;20161;-67
2022/01/24 10:38:27;;;;;;;29.00;21.63;;;6.80;99.90;;;;;;5033303;28;20454;-68
2022/01/24 10:41:09;;;;;;;26.45;18.92;;;6.80;99.90;;;;;;5051391;28;20060;-68
2022/01/24 10:43:36;;;;;;;23.33;17.90;;;6.80;99.90;;;;;;5046121;28;20506;-69
2022/01/24 10:46:03;;;;;;;24.33;18.27;;;6.80;99.90;;;;;;5047302;28;20052;-68
2022/01/24 10:48:31;;;;;;;27.75;19.10;;;6.80;99.90;;;;;;5045635;28;20476;-68
2022/01/24 10:51:23;;;;;;;24.95;19.10;;;6.80;99.90;;;;;;5044840;28;20048;-68
2022/01/24 10:53:56;;;;;;;24.30;18.80;;;6.90;99.90;;;;;;5045523;28;20065;-68
2022/01/24 10:56:32;;;;;;;24.95;19.30;;;6.90;99.90;;;;;;5044238;28;20558;-70
2022/01/24 10:59:09;;;;;;;23.42;18.25;;;6.90;99.90;;;;;;5043612;28;20464;-68
2022/01/24 11:01:35;;;;;;;23.73;17.55;;;6.90;99.90;;;;;;5041414;28;20048;-67
2022/01/24 11:04:03;;;;;;;23.98;18.45;;;6.90;99.90;;;;;;5039545;28;20048;-68
2022/01/24 11:06:33;;;;;;;23.38;17.92;;;6.80;99.90;;;;;;5046235;28;20591;-72
2022/01/24 11:09:21;;;;;;;24.15;18.60;;;6.90;99.90;;;;;;5044798;28;20121;-67
2022/01/24 11:11:52;;;;;;;25.23;18.58;;;6.90;99.90;;;;;;5050366;28;20131;-69
2022/01/24 11:14:20;;;;;;;24.48;18.98;;;7.00;99.90;;;;;;5047543;28;20041;-69
2022/01/24 11:16:47;;;;;;;24.88;19.05;;;7.00;99.90;;;;;;5043933;28;20522;-70
2022/01/24 11:19:19;;;;;;;22.85;18.13;;;7.00;99.90;;;;;;5045536;28;20114;-69
2022/01/24 11:21:46;;;;;;;24.35;19.08;;;7.10;99.90;;;;;;5046947;28;20040;-68
2022/01/24 11:24:19;;;;;;;24.73;19.10;;;7.10;99.90;;;;;;5047620;28;20075;-68
2022/01/24 11:26:46;;;;;;;26.90;20.40;;;7.00;99.90;;;;;;5046577;28;20121;-68
2022/01/24 11:29:13;;;;;;;26.65;20.10;;;7.00;99.90;;;;;;5049175;28;20104;-67
2022/01/24 11:31:56;;;;;;;25.98;21.10;;;7.00;99.90;;;;;;5051559;28;20071;-68
2022/01/24 11:34:47;;;;;;;26.65;21.33;;;7.00;99.90;;;;;;5046682;28;20503;-69
2022/01/24 11:37:34;;;;;;;28.35;21.75;;;7.00;99.90;;;;;;5045691;28;20044;-68
2022/01/24 11:40:09;;;;;;;26.23;20.73;;;7.00;99.90;;;;;;5052341;28;20500;-68
2022/01/24 11:42:36;;;;;;;29.75;22.52;;;7.00;99.90;;;;;;5050975;28;20124;-68
2022/01/24 11:45:10;;;;;;;24.80;21.00;;;7.00;99.90;;;;;;5070195;28;20679;-70
2022/01/24 11:47:36;;;;;;;26.95;21.05;;;7.00;99.90;;;;;;5047241;28;20037;-69
2022/01/24 11:50:24;;;;;;;24.33;19.95;;;7.00;99.90;;;;;;5057323;28;20046;-68
2022/01/24 11:52:51;;;;;;;26.55;21.00;;;6.90;99.90;;;;;;5050410;28;20066;-69
2022/01/24 11:55:30;;;;;;;27.48;22.00;;;7.00;99.90;;;;;;5046881;28;20048;-68
2022/01/24 11:58:06;;;;;;;27.15;20.50;;;7.00;99.90;;;;;;5047481;28;20465;-69
2022/01/24 12:00:38;;;;;;;23.50;18.15;;;7.00;99.90;;;;;;5051595;28;20057;-68
2022/01/24 12:03:16;;;;;;;21.63;16.88;;;7.00;99.90;;;;;;5046886;28;20106;-68
2022/01/24 12:05:45;;;;;;;21.83;17.52;;;6.90;99.90;;;;;;5047659;28;20051;-69
2022/01/24 12:08:25;;;;;;;21.70;17.02;;;7.00;99.90;;;;;;5049844;28;20080;-68
2022/01/24 12:10:51;;;;;;;20.20;16.30;;;7.00;99.90;;;;;;5049906;28;20041;-68
2022/01/24 12:13:28;;;;;;;18.88;14.75;;;7.00;99.90;;;;;;5045373;28;20135;-68
2022/01/24 12:16:01;;;;;;;18.00;14.75;;;7.00;99.90;;;;;;5048311;28;20049;-70
2022/01/24 12:18:27;;;;;;;19.83;15.57;;;7.10;99.90;;;;;;5047979;28;20105;-68
2022/01/24 12:20:57;;;;;;;16.80;13.90;;;7.10;99.90;;;;;;5053613;28;20102;-67
2022/01/24 12:23:27;;;;;;;18.83;14.20;;;7.10;99.90;;;;;;5052818;28;20044;-67
2022/01/24 12:25:58;;;;;;;19.05;14.48;;;7.10;99.90;;;;;;5047778;28;20128;-68
2022/01/24 12:28:25;;;;;;;18.73;15.18;;;7.20;99.90;;;;;;5045622;28;20052;-68
2022/01/24 12:31:07;;;;;;;20.45;15.52;;;7.10;99.90;;;;;;5048242;28;20037;-67
2022/01/24 12:33:42;;;;;;;16.63;13.90;;;7.20;99.90;;;;;;5047848;28;20053;-69
2022/01/24 12:36:37;;;;;;;19.70;15.20;;;7.10;99.90;;;;;;5029228;28;20065;-68
2022/01/24 12:39:09;;;;;;;21.85;17.10;;;7.20;99.90;;;;;;5044365;28;20057;-67
2022/01/24 12:41:39;;;;;;;23.00;18.75;;;7.20;99.90;;;;;;5057772;28;20052;-69
2022/01/24 12:46:32;;;;;;;22.13;17.52;;;7.20;99.90;;;;;;5048114;28;20045;-68
2022/01/24 12:49:00;;;;;;;21.52;17.75;;;7.10;99.90;;;;;;5047460;28;20045;-67
2022/01/24 12:51:29;;;;;;;24.23;18.20;;;7.10;99.90;;;;;;5049738;28;20048;-67
2022/01/24 12:53:56;;;;;;;20.33;16.95;;;7.00;99.90;;;;;;5049704;28;20159;-67
2022/01/24 12:56:27;;;;;;;22.15;17.10;;;7.00;99.90;;;;;;5039252;28;20466;-67
2022/01/24 12:58:54;;;;;;;19.38;16.05;;;7.10;99.90;;;;;;5040821;28;20070;-67
2022/01/24 13:01:30;;;;;;;22.33;16.15;;;7.10;99.90;;;;;;5052698;28;20067;-68
2022/01/24 13:03:57;;;;;;;18.70;15.45;;;7.10;99.90;;;;;;5047137;28;20048;-67
2022/01/24 13:06:25;;;;;;;20.30;15.73;;;7.10;99.90;;;;;;5048404;28;20041;-68
2022/01/24 13:09:19;;;;;;;19.67;15.68;;;7.10;99.90;;;;;;5048505;28;20381;-67
2022/01/24 13:11:58;;;;;;;21.08;16.17;;;7.20;99.90;;;;;;5045375;28;20055;-67
2022/01/24 13:14:34;;;;;;;20.52;16.38;;;7.10;99.90;;;;;;5046544;28;20087;-68
2022/01/24 13:22:45;;;;;;;21.13;16.58;;;7.20;99.90;;;;;;5049361;28;20052;-67
2022/01/24 13:25:26;;;;;;;22.27;17.48;;;7.20;99.90;;;;;;5038970;28;20063;-70
2022/01/24 13:28:12;;;;;;;22.80;18.58;;;7.10;99.90;;;;;;5054475;28;20156;-67
2022/01/24 13:30:40;;;;;;;20.45;16.67;;;7.20;99.90;;;;;;5044569;28;20311;-68
2022/01/24 13:33:13;;;;;;;19.27;15.55;;;7.20;99.90;;;;;;5049245;28;20049;-69
2022/01/24 13:35:53;;;;;;;22.00;17.77;;;7.20;99.90;;;;;;5056014;28;20091;-66
2022/01/24 13:38:20;;;;;;;22.77;18.17;;;7.10;99.90;;;;;;5054096;28;20038;-67
2022/01/24 13:41:01;;;;;;;22.10;17.80;;;7.00;99.90;;;;;;5046525;28;20140;-65
2022/01/24 13:43:45;;;;;;;22.48;17.20;;;7.10;99.90;;;;;;5034354;28;20045;-66
2022/01/24 13:46:15;;;;;;;23.35;17.15;;;7.00;99.90;;;;;;5046851;28;20345;-66
2022/01/24 13:48:47;;;;;;;21.55;17.45;;;7.00;99.90;;;;;;5046392;28;21861;-66
2022/01/24 13:51:17;;;;;;;22.98;17.77;;;6.90;99.90;;;;;;5044979;28;20405;-67
2022/01/24 13:53:53;;;;;;;19.77;15.88;;;6.90;99.90;;;;;;5034266;28;20077;-66
2022/01/24 13:56:24;;;;;;;20.60;16.95;;;6.80;99.90;;;;;;5054285;28;20073;-66
2022/01/24 13:59:03;;;;;;;22.95;18.45;;;6.80;99.90;;;;;;5048210;28;20052;-66
2022/01/24 14:01:29;;;;;;;24.50;19.02;;;6.90;99.90;;;;;;5040188;28;20045;-67
2022/01/24 14:04:04;;;;;;;24.42;19.92;;;6.90;99.90;;;;;;5047488;28;20063;-66
2022/01/24 14:06:31;;;;;;;;;;;6.90;99.90;;;;;;5046894;28;20424;-67
2022/01/24 14:09:12;;;;;;;24.05;18.70;;;6.90;99.90;;;;;;5038559;28;19935;-66
2022/01/24 14:11:47;;;;;;;24.85;19.92;;;6.90;99.90;;;;;;5034808;28;20049;-67
2022/01/24 14:14:16;;;;;;;;;;;6.90;99.90;;;;;;5048605;28;20084;-69
2022/01/24 14:19:27;;;;;;;24.00;18.98;;;6.90;99.90;;;;;;5034062;28;20046;-70
2022/01/24 14:22:11;;;;;;;24.83;18.25;;;6.90;99.90;;;;;;5049538;28;20044;-68
2022/01/24 14:25:05;;;;;;;25.85;20.40;;;6.90;99.90;;;;;;5046004;28;20041;-69
2022/01/24 14:27:51;;;;;;;26.77;19.35;;;7.00;99.90;;;;;;5050274;28;20067;-67
2022/01/24 14:30:26;;;;;;;28.85;21.00;;;7.00;99.90;;;;;;5046492;28;20041;-66
2022/01/24 14:33:01;;;;;;;24.42;19.48;;;7.00;99.90;;;;;;5047219;28;20099;-66
2022/01/24 14:35:28;;;;;;;25.90;20.23;;;6.90;99.90;;;;;;5046063;28;20128;-66
2022/01/24 14:37:55;;;;;;;25.48;19.77;;;6.90;99.90;;;;;;5047257;28;20052;-66
2022/01/24 14:40:38;;;;;;;25.15;19.85;;;6.80;99.90;;;;;;5048549;28;20072;-67